createdAt,value
2018-03-31T00:01:37.877Z,6.50
2018-03-31T00:04:04.781Z,6.40
2018-03-31T00:06:30.939Z,6.30
2018-03-31T00:08:57.090Z,6.30
2018-03-31T00:11:24.002Z,6.20
2018-03-31T00:13:50.137Z,6.20
2018-03-31T00:16:16.294Z,6.10
2018-03-31T00:18:43.198Z,6.00
2018-03-31T00:21:09.326Z,5.90
2018-03-31T00:23:35.481Z,5.90
2018-03-31T00:26:02.390Z,5.90
2018-03-31T00:28:28.517Z,5.80
2018-03-31T00:30:54.715Z,5.80
2018-03-31T00:33:20.935Z,5.80
2018-03-31T00:35:47.109Z,5.80
2018-03-31T00:38:13.267Z,5.70
2018-03-31T00:40:40.180Z,5.70
2018-03-31T00:43:06.348Z,5.70
2018-03-31T00:45:33.263Z,5.70
2018-03-31T00:47:59.422Z,5.70
2018-03-31T00:50:26.290Z,5.70
2018-03-31T00:52:52.439Z,5.70
2018-03-31T00:55:18.635Z,5.80
2018-03-31T00:57:45.512Z,5.60
2018-03-31T01:00:11.661Z,5.60
2018-03-31T01:02:37.827Z,5.50
2018-03-31T01:05:04.702Z,5.50
2018-03-31T01:07:30.857Z,5.50
2018-03-31T01:09:57.019Z,5.60
2018-03-31T01:12:23.155Z,5.60
2018-03-31T01:14:50.054Z,5.60
2018-03-31T01:17:16.216Z,5.60
2018-03-31T01:19:42.353Z,5.60
2018-03-31T01:22:09.267Z,5.60
2018-03-31T01:24:35.430Z,5.60
2018-03-31T01:27:02.300Z,5.60
2018-03-31T01:29:28.463Z,5.60
2018-03-31T01:31:54.618Z,5.60
2018-03-31T01:34:20.750Z,5.60
2018-03-31T01:36:46.954Z,5.60
2018-03-31T01:39:13.134Z,5.60
2018-03-31T01:41:40.018Z,5.60
2018-03-31T01:44:06.173Z,5.50
2018-03-31T01:46:32.330Z,5.50
2018-03-31T01:48:59.208Z,5.50
2018-03-31T01:51:25.361Z,5.50
2018-03-31T01:53:51.543Z,5.50
2018-03-31T01:56:17.671Z,5.50
2018-03-31T01:58:43.834Z,5.40
2018-03-31T02:01:10.001Z,5.50
2018-03-31T02:03:36.879Z,5.40
2018-03-31T02:06:03.042Z,5.40
2018-03-31T02:08:29.193Z,5.40
2018-03-31T02:10:55.339Z,5.40
2018-03-31T02:13:22.228Z,5.30
2018-03-31T02:15:48.372Z,5.20
2018-03-31T02:18:14.533Z,5.30
2018-03-31T02:20:41.435Z,5.20
2018-03-31T02:23:07.566Z,5.10
2018-03-31T02:25:33.758Z,5.20
2018-03-31T02:27:59.927Z,5.20
2018-03-31T02:30:26.065Z,5.10
2018-03-31T02:32:52.245Z,5.10
2018-03-31T02:35:18.410Z,5.00
2018-03-31T02:37:44.579Z,5.00
2018-03-31T02:40:11.509Z,4.90
2018-03-31T02:42:37.658Z,4.90
2018-03-31T02:45:04.542Z,4.90
2018-03-31T02:47:30.704Z,4.80
2018-03-31T02:49:56.875Z,4.80
2018-03-31T02:52:23.017Z,4.80
2018-03-31T02:54:49.175Z,4.80
2018-03-31T02:57:15.329Z,4.80
2018-03-31T02:59:41.464Z,4.80
2018-03-31T03:02:07.617Z,4.80
2018-03-31T03:04:33.774Z,4.80
2018-03-31T03:06:59.910Z,4.80
2018-03-31T03:09:26.077Z,4.70
2018-03-31T03:11:52.250Z,4.80
2018-03-31T03:14:18.400Z,4.80
2018-03-31T03:16:44.561Z,4.70
2018-03-31T03:19:10.709Z,4.70
2018-03-31T03:21:37.626Z,4.70
2018-03-31T03:24:03.794Z,4.70
2018-03-31T03:26:29.949Z,4.70
2018-03-31T03:28:56.279Z,4.70
2018-03-31T03:31:22.438Z,4.70
2018-03-31T03:33:48.573Z,4.70
2018-03-31T03:36:14.726Z,4.70
2018-03-31T03:38:41.622Z,4.70
2018-03-31T03:41:07.801Z,4.60
2018-03-31T03:43:34.731Z,4.70
2018-03-31T03:46:01.634Z,4.70
2018-03-31T03:48:27.765Z,4.60
2018-03-31T03:50:53.925Z,4.60
2018-03-31T03:53:20.075Z,4.60
2018-03-31T03:55:46.958Z,4.60
2018-03-31T03:58:13.123Z,4.60
2018-03-31T04:00:39.315Z,4.60
2018-03-31T04:03:05.443Z,4.60
2018-03-31T04:05:31.597Z,4.60
2018-03-31T04:07:57.799Z,4.60
2018-03-31T04:10:23.968Z,4.60
2018-03-31T04:12:50.134Z,4.60
2018-03-31T04:15:16.337Z,4.60
2018-03-31T04:17:43.208Z,4.60
2018-03-31T04:20:09.354Z,4.60
2018-03-31T04:22:35.505Z,4.60
2018-03-31T04:25:01.649Z,4.60
2018-03-31T04:27:27.815Z,4.60
2018-03-31T04:29:53.940Z,4.60
2018-03-31T04:32:20.118Z,4.60
2018-03-31T04:34:46.275Z,4.60
2018-03-31T04:37:12.410Z,4.60
2018-03-31T04:39:39.314Z,4.60
2018-03-31T04:42:05.527Z,4.50
2018-03-31T04:44:31.706Z,4.60
2018-03-31T04:46:57.894Z,4.50
2018-03-31T04:49:24.062Z,4.50
2018-03-31T04:51:50.246Z,4.50
2018-03-31T04:54:16.581Z,4.40
2018-03-31T04:56:42.754Z,4.40
2018-03-31T04:59:09.625Z,4.30
2018-03-31T05:01:35.814Z,4.30
2018-03-31T05:04:02.010Z,4.40
2018-03-31T05:06:28.181Z,4.30
2018-03-31T05:08:54.386Z,4.30
2018-03-31T05:11:20.542Z,4.30
2018-03-31T05:13:47.461Z,4.30
2018-03-31T05:16:13.671Z,4.30
2018-03-31T05:18:39.886Z,4.30
2018-03-31T05:21:06.051Z,4.30
2018-03-31T05:23:32.233Z,4.30
2018-03-31T05:25:58.386Z,4.30
2018-03-31T05:28:24.550Z,4.30
2018-03-31T05:33:42.682Z,4.40
2018-03-31T05:36:08.894Z,4.40
2018-03-31T05:38:35.038Z,4.40
2018-03-31T05:41:01.190Z,4.40
2018-03-31T05:43:27.347Z,4.40
2018-03-31T05:45:54.224Z,4.40
2018-03-31T05:48:20.401Z,4.30
2018-03-31T05:50:46.569Z,4.40
2018-03-31T05:53:12.716Z,4.30
2018-03-31T05:55:38.873Z,4.30
2018-03-31T05:58:05.032Z,4.30
2018-03-31T06:00:31.946Z,4.30
2018-03-31T06:02:58.114Z,4.20
2018-03-31T06:05:25.010Z,4.20
2018-03-31T06:07:51.138Z,4.20
2018-03-31T06:10:17.294Z,4.20
2018-03-31T06:12:43.449Z,4.20
2018-03-31T06:15:09.587Z,4.10
2018-03-31T06:17:35.742Z,4.10
2018-03-31T06:20:01.902Z,4.10
2018-03-31T06:22:28.040Z,4.00
2018-03-31T06:24:54.943Z,4.10
2018-03-31T06:27:21.082Z,4.10
2018-03-31T06:29:47.246Z,4.10
2018-03-31T06:32:14.150Z,4.20
2018-03-31T06:34:40.282Z,4.20
2018-03-31T06:37:06.446Z,4.10
2018-03-31T06:39:33.344Z,4.10
2018-03-31T06:41:59.475Z,4.00
2018-03-31T06:44:25.634Z,4.10
2018-03-31T06:46:51.789Z,4.10
2018-03-31T06:49:18.683Z,4.00
2018-03-31T06:51:44.846Z,3.90
2018-03-31T06:54:11.742Z,4.00
2018-03-31T06:56:37.926Z,3.90
2018-03-31T06:59:04.866Z,4.10
2018-03-31T07:01:30.994Z,4.10
2018-03-31T07:03:57.153Z,4.20
2018-03-31T07:06:23.312Z,4.20
2018-03-31T07:08:49.458Z,4.30
2018-03-31T07:11:15.626Z,4.40
2018-03-31T07:13:42.498Z,4.50
2018-03-31T07:16:08.658Z,4.40
2018-03-31T07:18:34.809Z,4.50
2018-03-31T07:21:00.945Z,4.70
2018-03-31T07:23:27.838Z,4.70
2018-03-31T07:25:53.998Z,4.60
2018-03-31T07:28:20.135Z,4.60
2018-03-31T07:30:46.297Z,4.70
2018-03-31T07:33:12.459Z,4.80
2018-03-31T07:35:38.593Z,4.80
2018-03-31T07:38:04.743Z,4.80
2018-03-31T07:40:30.872Z,4.80
2018-03-31T07:42:57.039Z,4.80
2018-03-31T07:45:23.221Z,4.90
2018-03-31T07:47:49.387Z,5.00
2018-03-31T07:50:15.542Z,5.00
2018-03-31T07:52:41.720Z,5.10
2018-03-31T07:55:08.601Z,5.40
2018-03-31T07:57:34.757Z,5.30
2018-03-31T08:00:00.917Z,5.60
2018-03-31T08:02:27.159Z,5.70
2018-03-31T08:04:54.076Z,5.90
2018-03-31T08:07:20.241Z,5.80
2018-03-31T08:09:47.167Z,6.00
2018-03-31T08:12:13.350Z,5.90
2018-03-31T08:14:39.514Z,6.20
2018-03-31T08:17:05.650Z,6.40
2018-03-31T08:19:32.554Z,6.80
2018-03-31T08:21:58.726Z,6.70
2018-03-31T08:24:24.902Z,7.00
2018-03-31T08:26:51.075Z,6.70
2018-03-31T08:29:17.235Z,6.40
2018-03-31T08:31:44.112Z,6.40
2018-03-31T08:34:10.269Z,6.30
2018-03-31T08:36:36.481Z,6.70
2018-03-31T08:39:02.652Z,6.90
2018-03-31T08:41:29.570Z,6.40
2018-03-31T08:43:55.771Z,6.40
2018-03-31T08:46:21.959Z,6.60
2018-03-31T08:48:48.912Z,6.50
2018-03-31T08:51:15.899Z,6.60
2018-03-31T08:53:42.070Z,6.60
2018-03-31T08:56:08.238Z,6.70
2018-03-31T08:58:34.439Z,6.90
2018-03-31T09:01:01.325Z,7.00
2018-03-31T09:03:27.490Z,7.00
2018-03-31T09:05:53.675Z,7.20
2018-03-31T09:08:19.836Z,7.40
2018-03-31T09:10:46.003Z,7.20
2018-03-31T09:13:12.938Z,7.00
2018-03-31T09:15:39.826Z,6.80
2018-03-31T09:18:05.987Z,6.70
2018-03-31T09:20:32.208Z,6.80
2018-03-31T09:22:58.361Z,6.80
2018-03-31T09:25:24.539Z,6.70
2018-03-31T09:27:50.703Z,6.70
2018-03-31T09:30:16.845Z,6.70
2018-03-31T09:32:43.033Z,6.70
2018-03-31T09:35:09.199Z,6.80
2018-03-31T09:37:35.338Z,7.00
2018-03-31T09:40:01.567Z,7.30
2018-03-31T09:42:27.686Z,7.60
2018-03-31T09:44:53.842Z,8.00
2018-03-31T09:47:20.749Z,8.40
2018-03-31T09:49:46.947Z,8.40
2018-03-31T09:52:13.114Z,8.40
2018-03-31T09:54:40.129Z,8.60
2018-03-31T09:57:06.301Z,8.50
2018-03-31T09:59:32.427Z,8.60
2018-03-31T10:01:58.586Z,8.50
2018-03-31T10:04:24.754Z,8.40
2018-03-31T10:06:50.911Z,8.30
2018-03-31T10:09:17.067Z,8.30
2018-03-31T10:11:43.248Z,8.20
2018-03-31T10:14:09.410Z,8.20
2018-03-31T10:16:36.335Z,8.30
2018-03-31T10:19:02.486Z,8.20
2018-03-31T10:21:29.397Z,8.10
2018-03-31T10:23:55.574Z,8.00
2018-03-31T10:26:21.732Z,8.10
2018-03-31T10:28:47.920Z,8.10
2018-03-31T10:31:14.881Z,8.20
2018-03-31T10:33:41.026Z,8.20
2018-03-31T10:36:07.182Z,8.10
2018-03-31T10:38:33.365Z,8.10
2018-03-31T10:40:59.523Z,8.20
2018-03-31T10:43:25.682Z,8.30
2018-03-31T10:45:51.822Z,8.40
2018-03-31T10:48:18.753Z,8.20
2018-03-31T10:50:44.927Z,8.10
2018-03-31T10:53:11.119Z,8.50
2018-03-31T10:55:37.287Z,8.70
2018-03-31T10:58:03.450Z,9.40
2018-03-31T11:00:29.586Z,9.70
2018-03-31T11:02:55.749Z,9.50
2018-03-31T11:05:22.651Z,9.50
2018-03-31T11:07:48.787Z,9.50
2018-03-31T11:10:14.965Z,9.60
2018-03-31T11:12:41.109Z,9.80
2018-03-31T11:15:07.278Z,9.60
2018-03-31T11:17:33.410Z,9.40
2018-03-31T11:20:00.348Z,8.80
2018-03-31T11:22:26.511Z,8.70
2018-03-31T11:24:53.398Z,8.70
2018-03-31T11:27:19.573Z,8.60
2018-03-31T11:29:45.729Z,8.80
2018-03-31T11:32:11.903Z,9.20
2018-03-31T11:34:38.076Z,9.50
2018-03-31T11:37:04.230Z,10.00
2018-03-31T11:39:30.407Z,10.30
2018-03-31T11:41:56.567Z,10.60
2018-03-31T11:44:22.702Z,10.80
2018-03-31T11:46:48.869Z,11.30
2018-03-31T11:49:15.042Z,11.40
2018-03-31T11:51:41.933Z,11.10
2018-03-31T11:54:08.147Z,11.10
2018-03-31T11:56:35.052Z,11.80
2018-03-31T11:59:01.128Z,11.70
2018-03-31T12:01:27.231Z,11.40
2018-03-31T12:03:53.340Z,11.50
2018-03-31T12:06:20.191Z,11.70
2018-03-31T12:08:47.048Z,11.60
2018-03-31T12:11:13.165Z,11.60
2018-03-31T12:13:39.992Z,11.60
2018-03-31T12:16:06.109Z,11.50
2018-03-31T12:18:32.237Z,11.30
2018-03-31T12:20:58.393Z,11.20
2018-03-31T12:23:24.478Z,10.80
2018-03-31T12:25:50.661Z,10.60
2018-03-31T12:28:16.796Z,10.40
2018-03-31T12:30:42.969Z,10.50
2018-03-31T12:33:09.132Z,10.80
2018-03-31T12:35:36.002Z,11.10
2018-03-31T12:38:02.175Z,11.00
2018-03-31T12:40:28.334Z,10.80
2018-03-31T12:42:54.470Z,11.00
2018-03-31T12:45:20.624Z,10.80
2018-03-31T12:47:46.805Z,11.00
2018-03-31T12:50:13.698Z,11.20
2018-03-31T12:52:39.928Z,11.10
2018-03-31T12:55:06.121Z,11.20
2018-03-31T12:57:33.045Z,11.50
2018-03-31T12:59:59.198Z,11.40
2018-03-31T13:02:26.068Z,11.20
2018-03-31T13:04:52.235Z,11.20
2018-03-31T13:07:18.361Z,11.20
2018-03-31T13:09:44.521Z,11.30
2018-03-31T13:12:11.425Z,11.70
2018-03-31T13:14:37.605Z,11.60
2018-03-31T13:17:03.763Z,11.40
2018-03-31T13:19:29.921Z,10.70
2018-03-31T13:21:56.046Z,10.30
2018-03-31T13:24:22.244Z,10.10
2018-03-31T13:26:48.448Z,9.90
2018-03-31T13:29:14.583Z,9.70
2018-03-31T13:31:40.759Z,9.70
2018-03-31T13:34:06.916Z,9.70
2018-03-31T13:36:33.795Z,10.00
2018-03-31T13:38:59.963Z,9.90
2018-03-31T13:41:26.114Z,10.00
2018-03-31T13:43:52.985Z,9.80
2018-03-31T13:46:19.179Z,9.80
2018-03-31T13:48:45.334Z,9.80
2018-03-31T13:51:12.220Z,9.50
2018-03-31T13:53:38.471Z,9.50
2018-03-31T13:56:04.650Z,9.50
2018-03-31T13:58:30.785Z,9.70
2018-03-31T14:00:56.954Z,9.90
2018-03-31T14:03:23.128Z,9.90
2018-03-31T14:05:49.320Z,9.70
2018-03-31T14:08:15.491Z,9.70
2018-03-31T14:10:41.667Z,9.50
2018-03-31T14:13:07.799Z,9.50
2018-03-31T14:15:33.974Z,9.60
2018-03-31T14:18:00.147Z,9.60
2018-03-31T14:20:26.281Z,9.70
2018-03-31T14:22:52.446Z,9.80
2018-03-31T14:25:19.354Z,9.80
2018-03-31T14:27:45.502Z,9.80
2018-03-31T14:30:11.666Z,10.00
2018-03-31T14:32:37.822Z,10.20
2018-03-31T14:35:03.956Z,10.30
2018-03-31T14:37:30.123Z,10.40
2018-03-31T14:39:57.045Z,10.80
2018-03-31T14:42:23.191Z,10.80
2018-03-31T14:44:50.099Z,11.20
2018-03-31T14:47:16.298Z,11.10
2018-03-31T14:49:42.437Z,11.10
2018-03-31T14:52:08.598Z,11.00
2018-03-31T14:54:34.750Z,10.80
2018-03-31T14:57:00.928Z,10.50
2018-03-31T14:59:27.151Z,10.30
2018-03-31T15:01:53.401Z,10.10
2018-03-31T15:04:19.632Z,9.80
2018-03-31T15:06:45.812Z,9.60
2018-03-31T15:09:12.029Z,9.60
2018-03-31T15:11:38.911Z,9.50
2018-03-31T15:14:05.098Z,9.50
2018-03-31T15:16:32.019Z,9.60
2018-03-31T15:18:58.187Z,9.60
2018-03-31T15:21:25.083Z,9.70
2018-03-31T15:23:51.247Z,9.60
2018-03-31T15:26:17.377Z,9.50
2018-03-31T15:28:44.286Z,9.20
2018-03-31T15:31:10.413Z,9.10
2018-03-31T15:33:36.618Z,9.00
2018-03-31T15:36:02.783Z,8.90
2018-03-31T15:38:28.926Z,8.70
2018-03-31T15:40:55.109Z,8.70
2018-03-31T15:43:22.118Z,8.60
2018-03-31T15:45:49.022Z,8.50
2018-03-31T15:48:15.193Z,8.50
2018-03-31T15:50:42.062Z,8.50
2018-03-31T15:53:08.215Z,8.40
2018-03-31T15:55:34.352Z,8.40
2018-03-31T15:58:00.505Z,8.40
2018-03-31T16:00:26.647Z,8.50
2018-03-31T16:02:53.531Z,8.40
2018-03-31T16:05:19.711Z,8.30
2018-03-31T16:07:45.863Z,8.30
2018-03-31T16:10:12.734Z,8.30
2018-03-31T16:12:38.903Z,8.20
2018-03-31T16:15:05.069Z,8.30
2018-03-31T16:17:31.949Z,8.10
2018-03-31T16:19:58.114Z,8.10
2018-03-31T16:22:25.021Z,8.00
2018-03-31T16:24:51.162Z,8.00
2018-03-31T16:27:17.325Z,8.00
2018-03-31T16:29:44.206Z,7.90
2018-03-31T16:32:10.377Z,7.90
2018-03-31T16:34:36.560Z,7.90
2018-03-31T16:37:02.719Z,7.80
2018-03-31T16:39:28.877Z,7.80
2018-03-31T16:41:55.043Z,7.70
2018-03-31T16:44:21.168Z,7.70
2018-03-31T16:46:47.328Z,7.70
2018-03-31T16:49:13.511Z,7.60
2018-03-31T16:51:40.420Z,7.60
2018-03-31T16:54:06.588Z,7.50
2018-03-31T16:56:33.511Z,7.50
2018-03-31T16:58:59.668Z,7.50
2018-03-31T17:01:25.839Z,7.40
2018-03-31T17:03:51.981Z,7.40
2018-03-31T17:06:18.206Z,7.40
2018-03-31T17:08:44.386Z,7.40
2018-03-31T17:11:10.547Z,7.30
2018-03-31T17:13:36.734Z,7.30
2018-03-31T17:16:02.895Z,7.20
2018-03-31T17:18:29.050Z,7.20
2018-03-31T17:20:55.187Z,7.30
2018-03-31T17:23:21.338Z,7.20
2018-03-31T17:25:48.240Z,7.20
2018-03-31T17:28:14.370Z,7.20
2018-03-31T17:30:40.521Z,7.20
2018-03-31T17:33:06.690Z,7.20
2018-03-31T17:35:32.848Z,7.10
2018-03-31T17:37:59.004Z,7.10
2018-03-31T17:40:25.162Z,7.10
2018-03-31T17:42:52.095Z,7.00
2018-03-31T17:45:18.208Z,6.90
2018-03-31T17:47:44.371Z,6.90
2018-03-31T17:50:10.547Z,6.90
2018-03-31T17:52:36.729Z,6.90
2018-03-31T17:55:02.891Z,6.80
2018-03-31T17:57:29.035Z,6.70
2018-03-31T17:59:55.221Z,6.60
2018-03-31T18:02:21.442Z,6.50
2018-03-31T18:04:47.574Z,6.40
2018-03-31T18:07:13.725Z,6.40
2018-03-31T18:09:39.846Z,6.30
2018-03-31T18:12:05.952Z,6.30
2018-03-31T18:14:32.062Z,6.20
2018-03-31T18:16:58.968Z,6.20
2018-03-31T18:19:25.107Z,6.10
2018-03-31T18:21:51.259Z,6.20
2018-03-31T18:24:18.158Z,6.20
2018-03-31T18:26:44.290Z,6.10
2018-03-31T18:29:10.441Z,6.20
2018-03-31T18:31:36.548Z,6.10
2018-03-31T18:34:02.630Z,6.00
2018-03-31T18:36:29.511Z,5.80
2018-03-31T18:38:55.695Z,5.80
2018-03-31T18:41:21.834Z,5.70
2018-03-31T18:43:48.731Z,5.70
2018-03-31T18:46:14.855Z,5.70
2018-03-31T18:48:41.010Z,5.80
2018-03-31T18:51:07.172Z,5.80
2018-03-31T18:53:33.331Z,5.90
2018-03-31T18:55:59.489Z,5.90
2018-03-31T18:58:25.669Z,6.00
2018-03-31T19:00:51.833Z,6.00
2018-03-31T19:03:17.996Z,6.10
2018-03-31T19:05:44.890Z,6.00
2018-03-31T19:08:11.028Z,5.90
2018-03-31T19:10:37.190Z,5.90
2018-03-31T19:13:04.143Z,6.00
2018-03-31T19:15:31.040Z,6.00
2018-03-31T19:17:57.231Z,6.00
2018-03-31T19:20:23.372Z,6.10
2018-03-31T19:22:49.544Z,6.10
2018-03-31T19:25:21.892Z,6.20
2018-03-31T19:27:48.065Z,6.10
2018-03-31T19:30:14.190Z,6.10
2018-03-31T19:32:40.345Z,6.10
2018-03-31T19:35:06.529Z,6.10
2018-03-31T19:37:32.661Z,6.20
2018-03-31T19:39:58.810Z,6.10
2018-03-31T19:42:25.712Z,6.10
2018-03-31T19:44:51.851Z,6.10
2018-03-31T19:47:18.002Z,6.10
2018-03-31T19:49:44.186Z,6.00
2018-03-31T19:52:10.339Z,6.00
2018-03-31T19:54:36.471Z,5.90
2018-03-31T19:57:02.632Z,5.90
2018-03-31T19:59:29.525Z,5.90
2018-03-31T20:01:55.657Z,5.90
2018-03-31T20:04:21.814Z,5.90
2018-03-31T20:06:47.977Z,5.90
2018-03-31T20:09:14.112Z,5.80
2018-03-31T20:11:40.278Z,5.80
2018-03-31T20:14:06.458Z,5.90
2018-03-31T20:16:32.616Z,5.90
2018-03-31T20:18:58.770Z,5.90
2018-03-31T20:21:24.907Z,5.90
2018-03-31T20:23:51.061Z,5.90
2018-03-31T20:26:17.935Z,5.90
2018-03-31T20:28:44.094Z,5.80
2018-03-31T20:31:10.313Z,5.80
2018-03-31T20:33:36.443Z,5.80
2018-03-31T20:36:02.612Z,5.80
2018-03-31T20:38:29.526Z,5.80
2018-03-31T20:40:55.663Z,5.70
2018-03-31T20:43:22.562Z,5.70
2018-03-31T20:45:48.724Z,5.60
2018-03-31T20:48:14.858Z,5.70
2018-03-31T20:50:41.016Z,5.60
2018-03-31T20:53:07.915Z,5.70
2018-03-31T20:55:34.049Z,5.60
2018-03-31T20:58:00.197Z,5.60
2018-03-31T21:00:26.359Z,5.70
2018-03-31T21:02:53.238Z,5.70
2018-03-31T21:05:19.390Z,5.60
2018-03-31T21:07:45.520Z,5.70
2018-03-31T21:10:11.692Z,5.60
2018-03-31T21:12:37.826Z,5.60
2018-03-31T21:15:04.005Z,5.60
2018-03-31T21:17:30.163Z,5.50
2018-03-31T21:19:57.082Z,5.60
2018-03-31T21:22:23.242Z,5.50
2018-03-31T21:24:50.155Z,5.60
2018-03-31T21:27:16.319Z,5.50
2018-03-31T21:29:43.215Z,5.50
2018-03-31T21:32:09.380Z,5.50
2018-03-31T21:34:36.262Z,5.50
2018-03-31T21:37:02.454Z,5.40
2018-03-31T21:39:29.355Z,5.40
2018-03-31T21:41:55.501Z,5.30
2018-03-31T21:44:21.655Z,5.30
2018-03-31T21:46:48.550Z,5.20
2018-03-31T21:49:14.684Z,5.20
2018-03-31T21:51:40.847Z,5.20
2018-03-31T21:54:07.002Z,5.10
2018-03-31T21:56:33.891Z,4.90
2018-03-31T21:59:00.063Z,4.90
2018-03-31T22:01:26.966Z,4.70
2018-03-31T22:03:53.094Z,4.60
2018-03-31T22:06:19.260Z,4.60
2018-03-31T22:08:46.160Z,4.60
2018-03-31T22:11:12.290Z,4.50
2018-03-31T22:13:44.656Z,4.60
2018-03-31T22:16:10.853Z,4.60
2018-03-31T22:18:37.806Z,4.50
2018-03-31T22:21:04.009Z,4.40
2018-03-31T22:23:30.920Z,4.50
2018-03-31T22:25:57.102Z,4.40
2018-03-31T22:28:23.974Z,4.30
2018-03-31T22:30:50.111Z,4.30
2018-03-31T22:33:16.268Z,4.30
2018-03-31T22:35:42.426Z,4.30
2018-03-31T22:38:09.297Z,4.30
2018-03-31T22:40:35.463Z,4.30
2018-03-31T22:43:01.606Z,4.40
2018-03-31T22:45:27.777Z,4.50
2018-03-31T22:47:53.915Z,4.60
2018-03-31T22:50:20.086Z,4.60
2018-03-31T22:52:46.241Z,4.60
2018-03-31T22:55:13.143Z,4.60
2018-03-31T22:57:39.309Z,4.50
2018-03-31T23:00:06.215Z,4.50
2018-03-31T23:02:32.362Z,4.40
2018-03-31T23:04:58.517Z,4.50
2018-03-31T23:07:25.386Z,4.50
2018-03-31T23:09:51.591Z,4.50
2018-03-31T23:12:18.430Z,4.50
2018-03-31T23:14:45.347Z,4.60
2018-03-31T23:17:11.520Z,4.50
2018-03-31T23:19:38.441Z,4.50
2018-03-31T23:22:05.385Z,4.40
2018-03-31T23:24:31.558Z,4.40
2018-03-31T23:26:57.690Z,4.40
2018-03-31T23:29:23.847Z,4.50
2018-03-31T23:31:50.003Z,4.40
2018-03-31T23:34:16.882Z,4.30
2018-03-31T23:36:43.047Z,4.30
2018-03-31T23:39:09.199Z,4.30
2018-03-31T23:41:35.331Z,4.30
2018-03-31T23:44:01.489Z,4.20
2018-03-31T23:46:27.649Z,4.20
2018-03-31T23:48:53.825Z,4.10
2018-03-31T23:51:20.730Z,4.20
2018-03-31T23:53:46.868Z,4.20
2018-03-31T23:56:13.033Z,4.20
2018-03-31T23:58:39.918Z,4.10
